Time;durP1;ratioP1;P1;durP2;ratioP2;P2;SDS_P1;SDS_P2;PMS_P1;PMS_P2;Temp;Humidity;BMP_temperature;BMP_pressure;BME280_temperature;BME280_humidity;BME280_pressure;Samples;Min_cycle;Max_cycle;Signal;HPM_P1;HPM_P2
2021/05/22 00:00:20;;;;;;;;;;;;;;;9.87;81.91;97646.97;5046310;28;19905;-62
2021/05/22 00:02:46;;;;;;;;;;;;;;;9.97;82.35;97637.88;5045386;28;19904;-62
2021/05/22 00:05:11;;;;;;;;;;;;;;;9.96;80.92;97642.25;5046298;28;19948;-62
2021/05/22 00:07:36;;;;;;;;;;;;;;;9.81;81.23;97641.91;5048198;28;19951;-62
2021/05/22 00:10:04;;;;;;;;;;;;;;;9.87;81.25;97642.56;5046232;28;19923;-62
2021/05/22 00:12:30;;;;;;;;;;;;;;;9.73;81.49;97643.91;5045945;28;19923;-62
2021/05/22 00:14:55;;;;;;;;;;;;;;;9.70;81.85;97633.50;5045989;28;20020;-62
2021/05/22 00:17:21;;;;;;;;;;;;;;;9.76;82.82;97649.94;5047758;28;19909;-62
2021/05/22 00:19:46;;;;;;;;;;;;;;;9.76;82.01;97638.56;5046597;28;19905;-62
2021/05/22 00:22:11;;;;;;;;;;;;;;;9.73;81.61;97629.00;5046364;28;19905;-62
2021/05/22 00:24:36;;;;;;;;;;;;;;;9.61;81.58;97633.78;5061503;28;19936;-62
2021/05/22 00:27:02;;;;;;;;;;;;;;;9.60;81.87;97626.81;5056153;28;19967;-62
2021/05/22 00:29:27;;;;;;;;;;;;;;;9.48;81.75;97619.31;5052722;28;19905;-62
2021/05/22 00:31:53;;;;;;;;;;;;;;;9.54;81.86;97629.63;5066380;28;19905;-62
2021/05/22 00:34:18;;;;;;;;;;;;;;;9.36;81.19;97630.22;5049209;28;19940;-62
2021/05/22 00:36:43;;;;;;;;;;;;;;;9.31;81.42;97640.00;5045482;28;19935;-62
2021/05/22 00:39:08;;;;;;;;;;;;;;;9.32;81.78;97641.69;5048755;28;19909;-62
2021/05/22 00:41:34;;;;;;;;;;;;;;;9.34;81.35;97639.91;5051470;28;20092;-62
2021/05/22 00:43:59;;;;;;;;;;;;;;;9.24;82.29;97643.72;5045375;28;19975;-62
2021/05/22 00:46:24;;;;;;;;;;;;;;;9.26;81.89;97642.75;5045379;28;19909;-62
2021/05/22 00:48:49;;;;;;;;;;;;;;;9.24;81.38;97646.34;5045407;28;19936;-64
2021/05/22 00:51:15;;;;;;;;;;;;;;;9.10;82.04;97653.72;5045498;28;19951;-64
2021/05/22 00:53:40;;;;;;;;;;;;;;;8.94;82.48;97652.47;5046132;28;19905;-65
2021/05/22 00:56:05;;;;;;;;;;;;;;;8.88;82.47;97652.63;5040491;28;19905;-64
2021/05/22 00:58:32;;;;;;;;;;;;;;;8.87;83.51;97659.66;5044737;28;19909;-64
2021/05/22 01:00:58;;;;;;;;;;;;;;;8.85;83.15;97655.38;5044831;28;20098;-64
2021/05/22 01:03:34;;;;;;;;;;;;;;;8.82;82.63;97665.94;5044959;28;19912;-64
2021/05/22 01:06:15;;;;;;;;;;;;;;;8.74;84.15;97660.91;5044985;28;20205;-64
2021/05/22 01:09:07;;;;;;;;;;;;;;;8.72;83.91;97666.19;5045039;28;19927;-64
2021/05/22 01:11:36;;;;;;;;;;;;;;;8.62;84.45;97664.72;5042484;28;19912;-64
2021/05/22 01:14:36;;;;;;;;;;;;;;;8.63;84.58;97663.81;5055768;28;19917;-64
2021/05/22 01:17:02;;;;;;;;;;;;;;;8.64;84.81;97660.28;4983920;28;19917;-64
2021/05/22 01:19:33;;;;;;;;;;;;;;;8.53;84.51;97664.09;4987134;28;19957;-64
2021/05/22 01:21:58;;;;;;;;;;;;;;;8.52;84.95;97663.22;4997225;28;19926;-64
2021/05/22 01:24:25;;;;;;;;;;;;;;;8.63;84.89;97676.94;4984052;28;19936;-64
2021/05/22 01:26:50;;;;;;;;;;;;;;;8.73;84.48;97667.03;4984126;28;20144;-64
2021/05/22 01:29:16;;;;;;;;;;;;;;;8.78;84.52;97676.53;4983947;28;19906;-64
2021/05/22 01:31:42;;;;;;;;;;;;;;;8.65;84.69;97674.25;4983538;28;19990;-64
2021/05/22 01:34:08;;;;;;;;;;;;;;;8.59;84.45;97682.28;4983792;28;19910;-65
2021/05/22 01:36:33;;;;;;;;;;;;;;;8.52;85.25;97668.47;4983166;28;19906;-64
2021/05/22 01:38:58;;;;;;;;;;;;;;;8.49;85.67;97672.94;4985968;28;20108;-65
2021/05/22 01:41:24;;;;;;;;;;;;;;;8.37;85.64;97671.53;4983230;28;19906;-64
2021/05/22 01:43:51;;;;;;;;;;;;;;;8.54;86.17;97664.06;4983126;28;20252;-64
2021/05/22 01:46:17;;;;;;;;;;;;;;;8.57;85.91;97679.72;4984568;28;19906;-64
2021/05/22 01:48:43;;;;;;;;;;;;;;;8.79;86.26;97672.97;4983724;28;19917;-64
2021/05/22 01:51:12;;;;;;;;;;;;;;;8.78;85.45;97670.41;5021240;28;20024;-64
2021/05/22 01:53:39;;;;;;;;;;;;;;;8.82;85.22;97672.91;5044051;28;20192;-64
2021/05/22 01:56:05;;;;;;;;;;;;;;;8.78;85.50;97671.28;5043975;28;19904;-64
2021/05/22 01:58:31;;;;;;;;;;;;;;;8.78;85.86;97671.28;5043459;28;19972;-64
2021/05/22 02:00:57;;;;;;;;;;;;;;;8.60;85.53;97671.75;5043904;28;19905;-64
2021/05/22 02:03:26;;;;;;;;;;;;;;;8.77;85.69;97673.94;5043519;28;20100;-64
2021/05/22 02:05:53;;;;;;;;;;;;;;;8.68;85.21;97674.19;5044007;28;20215;-64
2021/05/22 02:08:19;;;;;;;;;;;;;;;8.73;85.58;97664.41;5043009;28;19905;-64
2021/05/22 02:10:46;;;;;;;;;;;;;;;8.69;84.49;97668.03;5043426;28;19967;-64
2021/05/22 02:13:12;;;;;;;;;;;;;;;8.72;85.11;97667.94;5037261;28;19905;-64
2021/05/22 02:15:38;;;;;;;;;;;;;;;8.70;84.52;97662.75;5043541;28;20195;-64
2021/05/22 02:18:05;;;;;;;;;;;;;;;8.58;85.00;97657.81;5043375;28;19915;-64
2021/05/22 02:20:31;;;;;;;;;;;;;;;8.57;85.27;97658.72;5043990;28;20271;-64
2021/05/22 02:22:56;;;;;;;;;;;;;;;8.51;84.58;97663.25;5043511;28;19905;-64
2021/05/22 02:25:22;;;;;;;;;;;;;;;8.55;85.15;97668.38;5043380;28;19912;-64
2021/05/22 02:27:47;;;;;;;;;;;;;;;8.45;84.87;97661.66;5043544;28;19928;-64
2021/05/22 02:30:15;;;;;;;;;;;;;;;8.52;85.13;97668.47;5043143;28;20214;-64
2021/05/22 02:32:41;;;;;;;;;;;;;;;8.56;84.92;97667.50;5043495;28;19909;-64
2021/05/22 02:35:09;;;;;;;;;;;;;;;8.61;84.09;97662.97;5043793;28;19927;-64
2021/05/22 02:37:35;;;;;;;;;;;;;;;8.59;83.86;97659.56;5043326;28;19951;-64
2021/05/22 02:40:02;;;;;;;;;;;;;;;8.44;84.82;97667.81;5043493;28;19950;-64
2021/05/22 02:42:31;;;;;;;;;;;;;;;8.52;84.72;97657.97;5046721;28;19912;-64
2021/05/22 02:44:57;;;;;;;;;;;;;;;8.52;85.03;97652.72;5043535;28;19907;-64
2021/05/22 02:47:24;;;;;;;;;;;;;;;8.58;84.80;97663.06;5042736;28;19909;-64
2021/05/22 02:49:50;;;;;;;;;;;;;;;8.75;84.56;97660.88;5044836;28;19905;-64
2021/05/22 02:52:19;;;;;;;;;;;;;;;8.64;83.82;97657.66;5043333;28;19940;-64
2021/05/22 02:54:46;;;;;;;;;;;;;;;8.71;84.39;97659.19;5043389;28;19927;-64
2021/05/22 02:57:13;;;;;;;;;;;;;;;8.56;84.08;97664.00;5043161;28;19951;-65
2021/05/22 02:59:41;;;;;;;;;;;;;;;8.59;84.96;97663.94;5043541;28;19972;-64
2021/05/22 03:02:07;;;;;;;;;;;;;;;8.79;84.33;97665.13;5042907;28;19976;-64
2021/05/22 03:04:33;;;;;;;;;;;;;;;8.79;83.86;97662.50;5043811;28;19920;-64
2021/05/22 03:06:58;;;;;;;;;;;;;;;8.80;83.81;97658.13;5042702;28;19921;-64
2021/05/22 03:09:24;;;;;;;;;;;;;;;8.88;83.81;97665.75;5042996;28;20077;-64
2021/05/22 03:11:49;;;;;;;;;;;;;;;8.86;84.08;97670.19;5043168;28;19932;-64
2021/05/22 03:14:14;;;;;;;;;;;;;;;8.91;83.60;97671.78;5042629;28;19917;-64
2021/05/22 03:16:39;;;;;;;;;;;;;;;8.92;84.31;97667.41;5042868;28;19912;-64
2021/05/22 03:19:05;;;;;;;;;;;;;;;8.94;83.18;97670.81;5043206;28;19947;-64
2021/05/22 03:21:31;;;;;;;;;;;;;;;8.79;84.34;97678.22;5043067;28;20250;-65
2021/05/22 03:23:56;;;;;;;;;;;;;;;8.98;83.07;97678.56;5043236;28;19905;-64
2021/05/22 03:26:21;;;;;;;;;;;;;;;8.92;83.38;97672.66;5042947;28;19971;-64
2021/05/22 03:28:46;;;;;;;;;;;;;;;8.89;83.16;97672.72;5044966;28;20196;-64
2021/05/22 03:31:12;;;;;;;;;;;;;;;8.97;83.34;97671.63;5043155;28;19928;-64
2021/05/22 03:33:37;;;;;;;;;;;;;;;8.96;83.20;97674.28;5042850;28;19940;-65
2021/05/22 03:36:02;;;;;;;;;;;;;;;8.93;83.08;97676.97;5042909;28;19905;-64
2021/05/22 03:38:28;;;;;;;;;;;;;;;8.96;83.29;97677.78;5044137;28;19913;-65
2021/05/22 03:40:53;;;;;;;;;;;;;;;9.01;82.66;97672.41;5046422;28;19905;-64
2021/05/22 03:43:18;;;;;;;;;;;;;;;9.05;82.56;97671.41;5046268;28;20242;-64
2021/05/22 03:45:43;;;;;;;;;;;;;;;9.18;82.91;97670.13;5046504;28;19951;-64
2021/05/22 03:48:09;;;;;;;;;;;;;;;9.07;81.80;97672.19;5047432;28;19905;-64
2021/05/22 03:50:34;;;;;;;;;;;;;;;8.93;82.27;97683.09;5047000;28;20081;-64
2021/05/22 03:52:59;;;;;;;;;;;;;;;8.90;82.09;97684.94;5046055;28;19949;-64
2021/05/22 03:55:24;;;;;;;;;;;;;;;8.69;82.68;97687.25;5045685;28;19932;-64
2021/05/22 03:57:50;;;;;;;;;;;;;;;8.66;83.13;97682.09;5045793;28;19976;-65
2021/05/22 04:00:15;;;;;;;;;;;;;;;8.69;83.27;97682.00;5046009;28;20004;-64
2021/05/22 04:02:41;;;;;;;;;;;;;;;8.68;83.32;97685.50;5046072;28;19927;-64
2021/05/22 04:05:06;;;;;;;;;;;;;;;8.73;83.53;97693.25;5045144;28;19905;-64
2021/05/22 04:07:32;;;;;;;;;;;;;;;8.77;82.73;97674.78;5047358;28;20116;-64
2021/05/22 04:09:57;;;;;;;;;;;;;;;8.87;82.14;97682.41;5046299;28;19905;-64
2021/05/22 04:12:22;;;;;;;;;;;;;;;8.75;82.80;97681.84;5047001;28;19905;-64
2021/05/22 04:14:48;;;;;;;;;;;;;;;8.67;82.92;97688.22;5046437;28;19917;-64
2021/05/22 04:17:13;;;;;;;;;;;;;;;8.66;83.04;97695.22;5046565;28;20020;-64
2021/05/22 04:19:38;;;;;;;;;;;;;;;8.67;83.18;97682.97;5050204;28;20188;-64
2021/05/22 04:22:04;;;;;;;;;;;;;;;8.69;83.28;97689.00;5060679;28;20184;-64
2021/05/22 04:24:29;;;;;;;;;;;;;;;8.80;82.85;97684.34;5046276;28;20081;-64
2021/05/22 04:26:54;;;;;;;;;;;;;;;8.74;83.22;97693.22;5046315;28;19941;-64
2021/05/22 04:29:19;;;;;;;;;;;;;;;8.82;82.57;97692.19;5046037;28;19947;-64
2021/05/22 04:31:45;;;;;;;;;;;;;;;8.78;82.80;97689.63;5045239;28;19976;-64
2021/05/22 04:34:11;;;;;;;;;;;;;;;9.20;81.75;97705.09;5045646;28;21191;-64
2021/05/22 04:36:36;;;;;;;;;;;;;;;9.25;81.24;97704.06;5045345;28;19905;-64
2021/05/22 04:39:02;;;;;;;;;;;;;;;9.27;80.98;97701.38;5045432;28;19909;-64
2021/05/22 04:41:27;;;;;;;;;;;;;;;9.56;80.55;97696.13;5045323;28;19905;-64
2021/05/22 04:43:53;;;;;;;;;;;;;;;10.07;79.04;97697.16;5047173;28;19909;-64
2021/05/22 04:46:18;;;;;;;;;;;;;;;10.87;75.44;97690.00;5046342;28;19905;-64
2021/05/22 04:48:43;;;;;;;;;;;;;;;11.17;74.24;97686.25;5045839;28;19909;-64
2021/05/22 04:51:10;;;;;;;;;;;;;;;11.59;72.68;97695.22;5048594;28;20108;-65
2021/05/22 04:53:36;;;;;;;;;;;;;;;12.29;70.54;97682.75;5046295;28;19944;-65
2021/05/22 04:56:01;;;;;;;;;;;;;;;12.66;68.77;97694.34;5046155;28;20136;-62
2021/05/22 04:58:26;;;;;;;;;;;;;;;13.14;66.79;97680.84;5045203;28;20200;-62
2021/05/22 05:00:52;;;;;;;;;;;;;;;13.10;67.23;97694.25;5044716;28;19904;-62
2021/05/22 05:03:17;;;;;;;;;;;;;;;13.38;66.70;97694.75;5044483;28;19936;-62
2021/05/22 05:05:42;;;;;;;;;;;;;;;13.79;65.49;97683.13;5044775;28;19905;-62
2021/05/22 05:08:07;;;;;;;;;;;;;;;13.78;64.12;97689.31;5045096;28;20137;-62
2021/05/22 05:10:33;;;;;;;;;;;;;;;13.44;65.49;97694.47;5044829;28;19927;-62
2021/05/22 05:12:58;;;;;;;;;;;;;;;13.92;64.64;97700.13;5044882;28;19905;-62
2021/05/22 05:15:23;;;;;;;;;;;;;;;14.08;65.18;97704.59;5044511;28;19920;-62
2021/05/22 05:17:48;;;;;;;;;;;;;;;14.29;62.89;97697.44;5044444;28;19968;-62
2021/05/22 05:20:14;;;;;;;;;;;;;;;14.66;61.48;97700.00;5044320;28;19947;-62
2021/05/22 05:22:39;;;;;;;;;;;;;;;14.34;61.71;97700.72;5044434;28;19905;-62
2021/05/22 05:25:05;;;;;;;;;;;;;;;14.72;61.69;97697.03;5044376;28;19905;-62
2021/05/22 05:27:30;;;;;;;;;;;;;;;14.77;60.86;97710.88;5043724;28;19905;-62
2021/05/22 05:29:56;;;;;;;;;;;;;;;14.96;60.42;97703.72;5044516;28;19912;-62
2021/05/22 05:32:21;;;;;;;;;;;;;;;14.21;63.76;97711.00;5044238;28;20206;-63
2021/05/22 05:34:46;;;;;;;;;;;;;;;14.21;62.73;97710.16;5044592;28;19985;-62
2021/05/22 05:37:12;;;;;;;;;;;;;;;14.61;62.21;97707.28;5044216;28;19975;-62
2021/05/22 05:39:38;;;;;;;;;;;;;;;14.02;63.71;97706.69;5047312;28;20260;-62
2021/05/22 05:42:03;;;;;;;;;;;;;;;13.55;64.66;97721.25;5044117;28;19920;-62
2021/05/22 05:44:29;;;;;;;;;;;;;;;13.69;64.90;97721.47;5044093;28;20247;-62
2021/05/22 05:46:55;;;;;;;;;;;;;;;13.35;65.54;97726.59;5045137;28;19968;-62
2021/05/22 05:49:20;;;;;;;;;;;;;;;14.11;65.67;97722.13;5044749;28;19905;-62
2021/05/22 05:51:45;;;;;;;;;;;;;;;14.23;63.56;97725.06;5043639;28;19912;-62
2021/05/22 05:54:10;;;;;;;;;;;;;;;14.36;61.98;97723.53;5044163;28;19905;-63
2021/05/22 05:56:36;;;;;;;;;;;;;;;14.33;63.27;97722.84;5043914;28;19905;-62
2021/05/22 05:59:01;;;;;;;;;;;;;;;14.93;60.76;97723.28;5043707;28;20020;-62
2021/05/22 06:01:26;;;;;;;;;;;;;;;15.15;60.10;97717.72;5042958;28;19909;-62
2021/05/22 06:03:52;;;;;;;;;;;;;;;16.03;57.08;97719.16;5043865;28;20190;-62
2021/05/22 06:06:19;;;;;;;;;;;;;;;16.46;56.86;97721.16;5043789;28;19905;-62
2021/05/22 06:08:44;;;;;;;;;;;;;;;16.61;56.14;97721.13;5043841;28;19984;-63
2021/05/22 06:11:12;;;;;;;;;;;;;;;16.48;56.47;97730.75;5043604;28;20192;-62
2021/05/22 06:13:37;;;;;;;;;;;;;;;15.99;56.73;97715.84;5043215;28;19916;-63
2021/05/22 06:16:19;;;;;;;;;;;;;;;15.79;59.58;97725.81;5043607;28;19976;-63
2021/05/22 06:18:44;;;;;;;;;;;;;;;16.39;56.36;97723.25;5043519;28;19995;-62
2021/05/22 06:21:09;;;;;;;;;;;;;;;16.59;54.95;97720.38;5043660;28;19999;-62
2021/05/22 06:23:35;;;;;;;;;;;;;;;16.49;54.66;97731.63;5043614;28;19905;-63
2021/05/22 06:26:00;;;;;;;;;;;;;;;16.42;54.02;97728.41;5043573;28;19936;-63
2021/05/22 06:28:26;;;;;;;;;;;;;;;16.19;55.46;97726.19;5043904;28;20180;-62
2021/05/22 06:30:51;;;;;;;;;;;;;;;17.10;53.04;97727.97;5043525;28;19912;-62
2021/05/22 06:33:17;;;;;;;;;;;;;;;17.74;50.79;97721.38;5044095;28;19905;-62
2021/05/22 06:35:42;;;;;;;;;;;;;;;18.22;52.04;97720.97;5047417;28;19975;-63
2021/05/22 06:38:08;;;;;;;;;;;;;;;17.54;51.23;97727.09;5043289;28;20242;-63
2021/05/22 06:40:33;;;;;;;;;;;;;;;17.85;50.61;97732.22;5044787;28;19905;-63
2021/05/22 06:42:58;;;;;;;;;;;;;;;17.82;50.86;97732.44;5043198;28;19905;-63
2021/05/22 06:45:26;;;;;;;;;;;;;;;17.44;51.64;97737.44;5043474;28;19905;-63
2021/05/22 06:47:51;;;;;;;;;;;;;;;16.31;55.07;97741.44;5043484;28;19966;-62
2021/05/22 06:50:16;;;;;;;;;;;;;;;16.85;52.85;97738.31;5043712;28;20196;-62
2021/05/22 06:52:42;;;;;;;;;;;;;;;17.35;52.99;97753.06;5043477;28;19989;-62
2021/05/22 06:55:07;;;;;;;;;;;;;;;17.42;51.42;97738.44;5044314;28;19912;-63
2021/05/22 06:57:33;;;;;;;;;;;;;;;17.40;52.23;97735.03;5043319;28;19909;-63
2021/05/22 06:59:58;;;;;;;;;;;;;;;17.14;52.52;97750.75;5043600;28;19905;-63
2021/05/22 07:02:23;;;;;;;;;;;;;;;17.27;53.24;97757.03;5043238;28;19908;-63
2021/05/22 07:04:49;;;;;;;;;;;;;;;18.41;49.18;97742.81;5043566;28;19905;-63
2021/05/22 07:07:15;;;;;;;;;;;;;;;18.10;50.46;97733.25;5042989;28;19905;-63
2021/05/22 07:09:40;;;;;;;;;;;;;;;19.27;49.71;97751.28;5042894;28;19912;-63
2021/05/22 07:12:05;;;;;;;;;;;;;;;19.52;46.65;97761.97;5042909;28;20196;-63
2021/05/22 07:14:31;;;;;;;;;;;;;;;19.07;47.60;97754.38;5045336;28;19925;-63
2021/05/22 07:16:58;;;;;;;;;;;;;;;18.02;48.93;97750.66;5046545;28;19905;-64
2021/05/22 07:19:23;;;;;;;;;;;;;;;18.34;49.27;97752.13;5046583;28;19906;-63
2021/05/22 07:21:50;;;;;;;;;;;;;;;18.33;49.23;97747.75;5046527;28;20211;-63
2021/05/22 07:24:16;;;;;;;;;;;;;;;19.40;47.04;97741.47;5047609;28;19909;-63
2021/05/22 07:26:41;;;;;;;;;;;;;;;19.91;43.74;97737.84;5047080;28;19905;-63
2021/05/22 07:29:06;;;;;;;;;;;;;;;20.27;43.45;97751.28;5047512;28;19971;-63
2021/05/22 07:31:32;;;;;;;;;;;;;;;18.66;45.45;97750.94;5059445;28;19927;-63
2021/05/22 07:33:58;;;;;;;;;;;;;;;18.98;48.18;97755.00;5066442;28;19962;-63
2021/05/22 07:36:23;;;;;;;;;;;;;;;18.80;48.38;97766.91;5047082;28;19905;-63
2021/05/22 07:38:48;;;;;;;;;;;;;;;18.64;47.36;97760.88;5046459;28;19909;-63
2021/05/22 07:41:14;;;;;;;;;;;;;;;17.27;52.03;97759.69;5046081;28;20184;-63
2021/05/22 07:43:39;;;;;;;;;;;;;;;17.17;50.48;97757.69;5046556;28;20200;-63
2021/05/22 07:46:05;;;;;;;;;;;;;;;17.24;50.05;97767.88;5046511;28;19905;-63
2021/05/22 07:48:30;;;;;;;;;;;;;;;16.74;52.15;97767.31;5050139;28;19911;-63
2021/05/22 07:50:56;;;;;;;;;;;;;;;17.76;50.70;97752.31;5046191;28;19905;-63
2021/05/22 07:53:21;;;;;;;;;;;;;;;17.07;52.11;97754.72;5046262;28;19939;-63
2021/05/22 07:55:47;;;;;;;;;;;;;;;16.98;50.87;97760.56;5047706;28;19937;-63
2021/05/22 07:58:15;;;;;;;;;;;;;;;17.68;50.18;97767.88;5045772;28;19915;-63
2021/05/22 08:00:40;;;;;;;;;;;;;;;18.13;49.11;97761.50;5050560;28;20065;-63
2021/05/22 08:03:06;;;;;;;;;;;;;;;16.60;51.55;97759.28;5046068;28;19907;-62
2021/05/22 08:05:31;;;;;;;;;;;;;;;16.16;51.55;97765.31;5046163;28;20116;-63
2021/05/22 08:07:56;;;;;;;;;;;;;;;16.08;52.30;97764.91;5046065;28;19909;-63
2021/05/22 08:10:21;;;;;;;;;;;;;;;16.32;51.12;97758.22;5049104;28;19905;-63
2021/05/22 08:12:47;;;;;;;;;;;;;;;16.52;50.24;97765.97;5045193;28;19909;-63
2021/05/22 08:15:12;;;;;;;;;;;;;;;16.17;51.35;97762.56;5045393;28;19999;-63
2021/05/22 08:17:38;;;;;;;;;;;;;;;16.78;50.47;97763.53;5046637;28;20211;-63
2021/05/22 08:20:04;;;;;;;;;;;;;;;17.83;50.29;97755.41;5044183;28;19928;-64
2021/05/22 08:22:29;;;;;;;;;;;;;;;17.97;47.25;97758.94;5044933;28;19912;-64
2021/05/22 08:24:54;;;;;;;;;;;;;;;19.41;45.70;97753.84;5044843;28;19984;-64
2021/05/22 08:27:21;;;;;;;;;;;;;;;18.86;45.78;97762.00;5045514;28;19944;-64
2021/05/22 08:29:46;;;;;;;;;;;;;;;18.58;44.92;97756.75;5046536;28;19939;-64
2021/05/22 08:32:11;;;;;;;;;;;;;;;19.75;43.64;97750.56;5047401;28;19912;-64
2021/05/22 08:34:39;;;;;;;;;;;;;;;20.04;42.93;97745.84;5045206;28;20095;-64
2021/05/22 08:37:05;;;;;;;;;;;;;;;19.09;42.08;97763.16;5044304;28;19972;-64
2021/05/22 08:39:30;;;;;;;;;;;;;;;18.03;43.35;97757.72;5044790;28;19909;-64
2021/05/22 08:41:55;;;;;;;;;;;;;;;18.31;43.18;97745.19;5045191;28;19939;-64
2021/05/22 08:44:20;;;;;;;;;;;;;;;18.30;44.08;97739.97;5044884;28;19924;-64
2021/05/22 08:46:46;;;;;;;;;;;;;;;17.52;44.99;97755.63;5045497;28;19912;-64
2021/05/22 08:49:13;;;;;;;;;;;;;;;17.85;42.94;97743.75;5045627;28;19943;-64
2021/05/22 08:51:39;;;;;;;;;;;;;;;17.87;43.51;97755.13;5045345;28;19971;-64
2021/05/22 08:54:04;;;;;;;;;;;;;;;17.75;42.37;97742.59;5045355;28;19912;-64
2021/05/22 08:56:29;;;;;;;;;;;;;;;16.61;45.65;97755.66;5047484;28;20218;-64
2021/05/22 08:58:54;;;;;;;;;;;;;;;16.51;46.76;97765.09;5045104;28;19916;-64
2021/05/22 09:01:20;;;;;;;;;;;;;;;16.58;46.48;97768.28;5045111;28;20191;-64
2021/05/22 09:03:45;;;;;;;;;;;;;;;16.85;46.71;97767.56;5045343;28;19905;-64
2021/05/22 09:06:11;;;;;;;;;;;;;;;16.65;48.61;97775.78;5045478;28;19913;-64
2021/05/22 09:08:36;;;;;;;;;;;;;;;16.66;47.88;97774.88;5045212;28;20274;-64
2021/05/22 09:11:05;;;;;;;;;;;;;;;17.43;46.90;97772.13;5045438;28;19939;-64
2021/05/22 09:13:30;;;;;;;;;;;;;;;17.26;46.73;97786.41;5044377;28;19925;-64
2021/05/22 09:15:57;;;;;;;;;;;;;;;17.01;48.42;97797.63;5044400;28;20095;-64
2021/05/22 09:18:24;;;;;;;;;;;;;;;17.76;45.80;97791.34;5044582;28;19909;-64
2021/05/22 09:20:54;;;;;;;;;;;;;;;17.40;48.79;97783.75;5044676;28;19905;-64
2021/05/22 09:23:20;;;;;;;;;;;;;;;16.73;49.63;97786.84;5044264;28;19937;-64
2021/05/22 09:25:46;;;;;;;;;;;;;;;16.59;49.73;97784.13;5045742;28;20077;-64
2021/05/22 09:28:12;;;;;;;;;;;;;;;16.03;50.46;97798.78;5044273;28;19905;-64
2021/05/22 09:30:39;;;;;;;;;;;;;;;16.11;51.38;97784.16;5048918;28;20250;-64
2021/05/22 09:33:10;;;;;;;;;;;;;;;15.99;52.54;97783.97;5046208;28;19937;-64
2021/05/22 09:35:36;;;;;;;;;;;;;;;18.24;48.34;97782.97;5047322;28;19905;-64
2021/05/22 09:38:01;;;;;;;;;;;;;;;19.04;44.73;97781.25;5044220;28;20255;-64
2021/05/22 09:40:28;;;;;;;;;;;;;;;19.23;43.04;97776.41;5048143;28;19905;-64
2021/05/22 09:42:53;;;;;;;;;;;;;;;19.54;42.38;97762.72;5044556;28;19912;-64
2021/05/22 09:45:27;;;;;;;;;;;;;;;19.26;43.12;97770.91;5045010;28;20005;-64
2021/05/22 09:47:53;;;;;;;;;;;;;;;18.99;43.55;97778.06;5051578;28;19958;-64
2021/05/22 09:50:48;;;;;;;;;;;;;;;18.28;44.64;97781.81;5064852;28;19975;-64
2021/05/22 09:53:34;;;;;;;;;;;;;;;18.90;43.14;97774.19;5048587;28;19993;-64
2021/05/22 09:56:19;;;;;;;;;;;;;;;18.82;44.11;97787.16;5044763;28;19931;-64
2021/05/22 09:58:49;;;;;;;;;;;;;;;17.99;44.27;97782.81;5045171;28;20109;-64
2021/05/22 10:01:15;;;;;;;;;;;;;;;17.31;44.95;97794.09;5039828;28;19905;-64
2021/05/22 10:03:41;;;;;;;;;;;;;;;17.03;45.61;97797.53;5044129;28;19936;-64
2021/05/22 10:06:06;;;;;;;;;;;;;;;16.84;45.44;97804.84;5043519;28;19905;-64
2021/05/22 10:08:31;;;;;;;;;;;;;;;16.58;48.06;97803.66;5044109;28;19912;-64
2021/05/22 10:10:58;;;;;;;;;;;;;;;16.83;46.76;97798.66;5043642;28;19928;-64
2021/05/22 10:13:24;;;;;;;;;;;;;;;17.02;44.79;97798.44;5043926;28;19905;-63
2021/05/22 10:15:50;;;;;;;;;;;;;;;17.78;44.53;97805.44;5043744;28;19970;-63
2021/05/22 10:18:16;;;;;;;;;;;;;;;18.48;44.83;97784.13;5043796;28;20197;-63
2021/05/22 10:20:42;;;;;;;;;;;;;;;18.68;45.79;97805.00;5043937;28;19936;-64
2021/05/22 10:23:08;;;;;;;;;;;;;;;19.15;42.67;97800.09;5043826;28;20139;-64
2021/05/22 10:25:33;;;;;;;;;;;;;;;19.97;41.27;97793.50;5043719;28;19905;-64
2021/05/22 10:27:59;;;;;;;;;;;;;;;20.50;43.83;97805.78;5043942;28;20012;-64
2021/05/22 10:30:24;;;;;;;;;;;;;;;20.81;39.77;97798.06;5043681;28;19905;-64
2021/05/22 10:32:49;;;;;;;;;;;;;;;20.71;41.22;97805.06;5043558;28;19912;-64
2021/05/22 10:35:24;;;;;;;;;;;;;;;20.13;38.28;97807.53;5043683;28;19905;-64
2021/05/22 10:37:50;;;;;;;;;;;;;;;18.95;40.77;97792.53;5043348;28;19908;-64
2021/05/22 10:40:20;;;;;;;;;;;;;;;18.83;41.48;97804.03;5036182;28;19905;-64
2021/05/22 10:42:48;;;;;;;;;;;;;;;18.31;43.11;97793.16;5044943;28;19905;-64
2021/05/22 10:45:27;;;;;;;;;;;;;;;18.42;42.62;97803.16;5043899;28;19999;-64
2021/05/22 10:47:54;;;;;;;;;;;;;;;19.41;42.42;97811.69;5043580;28;19944;-64
2021/05/22 10:50:40;;;;;;;;;;;;;;;19.77;42.40;97798.53;5048485;28;19911;-64
2021/05/22 10:53:22;;;;;;;;;;;;;;;19.87;39.38;97795.09;5046784;28;19904;-64
2021/05/22 10:56:03;;;;;;;;;;;;;;;20.24;41.36;97799.59;5047340;28;20238;-64
2021/05/22 10:58:28;;;;;;;;;;;;;;;20.35;38.91;97802.34;5047113;28;19913;-64
2021/05/22 11:01:13;;;;;;;;;;;;;;;20.37;39.27;97803.09;5054512;28;19911;-64
2021/05/22 11:03:39;;;;;;;;;;;;;;;20.22;40.30;97801.50;5042534;28;20246;-64
2021/05/22 11:06:04;;;;;;;;;;;;;;;19.89;41.40;97806.53;5048370;28;19908;-64
2021/05/22 11:08:30;;;;;;;;;;;;;;;19.36;41.13;97806.66;5046658;28;19905;-64
2021/05/22 11:10:59;;;;;;;;;;;;;;;19.29;38.95;97808.03;5046708;28;19905;-64
2021/05/22 11:13:25;;;;;;;;;;;;;;;19.01;40.10;97816.13;5046855;28;19908;-64
2021/05/22 11:15:57;;;;;;;;;;;;;;;18.70;41.34;97819.09;5046957;28;19951;-64
2021/05/22 11:18:23;;;;;;;;;;;;;;;18.82;41.53;97812.97;5047333;28;19909;-64
2021/05/22 11:21:07;;;;;;;;;;;;;;;18.50;40.52;97814.19;5047168;28;20073;-64
2021/05/22 11:23:51;;;;;;;;;;;;;;;18.10;42.88;97822.94;5047000;28;20158;-64
2021/05/22 11:26:36;;;;;;;;;;;;;;;18.12;41.61;97821.03;5046044;28;19905;-64
2021/05/22 11:29:02;;;;;;;;;;;;;;;18.79;41.42;97802.50;5046738;28;19905;-64
2021/05/22 11:31:33;;;;;;;;;;;;;;;18.44;44.40;97812.78;5046914;28;19947;-64
2021/05/22 11:34:18;;;;;;;;;;;;;;;18.17;42.61;97813.63;5047050;28;19912;-64
2021/05/22 11:37:04;;;;;;;;;;;;;;;17.98;41.04;97815.72;5030242;28;19912;-64
2021/05/22 11:39:42;;;;;;;;;;;;;;;18.20;42.31;97810.78;5046380;28;19951;-64
2021/05/22 11:42:27;;;;;;;;;;;;;;;18.51;41.92;97807.91;5046244;28;19959;-64
2021/05/22 11:44:53;;;;;;;;;;;;;;;18.59;42.63;97813.59;5044826;28;19905;-64
2021/05/22 11:47:19;;;;;;;;;;;;;;;18.51;43.73;97810.59;5046525;28;19928;-64
2021/05/22 11:49:44;;;;;;;;;;;;;;;18.41;41.84;97806.75;5047250;28;19909;-64
2021/05/22 11:52:24;;;;;;;;;;;;;;;18.02;41.85;97825.22;5057078;28;19911;-64
2021/05/22 11:54:50;;;;;;;;;;;;;;;18.17;45.23;97824.28;5067103;28;19904;-64
2021/05/22 11:57:18;;;;;;;;;;;;;;;18.07;41.37;97823.13;5057692;28;19909;-64
2021/05/22 11:59:44;;;;;;;;;;;;;;;18.03;42.88;97826.94;5057981;28;20130;-64
2021/05/22 12:02:09;;;;;;;;;;;;;;;18.24;45.02;97841.59;5066712;28;19977;-64
2021/05/22 12:04:39;;;;;;;;;;;;;;;18.10;44.29;97833.59;5066785;28;19911;-64
2021/05/22 12:07:05;;;;;;;;;;;;;;;18.12;43.21;97832.56;5067118;28;19908;-64
2021/05/22 12:09:31;;;;;;;;;;;;;;;17.91;41.16;97827.69;5066715;28;19911;-64
2021/05/22 12:12:01;;;;;;;;;;;;;;;18.04;40.46;97828.66;5047742;28;20229;-64
2021/05/22 12:14:40;;;;;;;;;;;;;;;18.06;42.01;97826.72;5045820;28;19919;-64
2021/05/22 12:17:06;;;;;;;;;;;;;;;18.33;44.96;97822.38;5040115;28;19905;-64
2021/05/22 12:19:33;;;;;;;;;;;;;;;18.56;41.54;97821.78;5045976;28;20204;-64
2021/05/22 12:21:58;;;;;;;;;;;;;;;18.58;41.27;97830.56;5049950;28;19912;-64
2021/05/22 12:24:24;;;;;;;;;;;;;;;18.57;43.88;97823.53;5045993;28;19905;-64
2021/05/22 12:26:50;;;;;;;;;;;;;;;18.43;43.67;97834.19;5045746;28;20202;-64
2021/05/22 12:29:16;;;;;;;;;;;;;;;18.32;43.65;97833.97;5045828;28;19928;-64
2021/05/22 12:31:51;;;;;;;;;;;;;;;18.13;43.91;97820.09;5046461;28;19944;-64
2021/05/22 12:34:22;;;;;;;;;;;;;;;17.89;43.73;97829.59;5040934;28;19905;-64
2021/05/22 12:37:02;;;;;;;;;;;;;;;17.77;43.09;97822.34;5045520;28;20100;-64
2021/05/22 12:39:35;;;;;;;;;;;;;;;17.94;43.35;97811.53;5045349;28;19909;-64
2021/05/22 12:42:11;;;;;;;;;;;;;;;18.08;42.61;97809.72;5046366;28;19905;-64
2021/05/22 12:44:37;;;;;;;;;;;;;;;17.97;44.50;97816.69;5043663;28;20127;-64
2021/05/22 12:47:02;;;;;;;;;;;;;;;18.03;42.36;97821.63;5050293;28;19986;-64
2021/05/22 12:49:31;;;;;;;;;;;;;;;17.98;42.04;97826.38;5044059;28;19916;-65